Terminal Aerodrome Forecast
Issued by NWS Blacksburg, VA

Current Version | Previous Version | Graphics & Text | Print | Product List | Glossary On
Versions: 1 2 3 4 5 6 7 8 9 10 11 12 13 14 15 16 17 18 19 20 21 22 23 24 25 26 27 28 29 30 31 32 33 34 35 36
000
FTUS41 KRNK 180526
TAFBLF
TAF
KBLF 180526Z 1806/1906 26004KT P6SM SKC
     FM181000 00000KT 2SM BR SCT025
     FM181300 00000KT P6SM SCT050
     FM182000 32004KT P6SM BKN045=

USA.gov is the U.S. government's official web portal to all federal, state and local government web resources and services.